createdAt,value
2017-08-28T20:39:33.908Z,23.81
2017-08-28T20:42:03.672Z,23.60
2017-08-28T20:44:33.533Z,23.47
2017-08-28T20:49:33.412Z,18.58
2017-08-28T20:52:03.336Z,17.95
2017-08-28T20:54:33.455Z,17.60
2017-08-28T20:57:03.231Z,17.03
2017-08-28T20:59:33.345Z,16.93
2017-08-28T21:02:03.010Z,16.55
2017-08-28T21:04:33.238Z,16.12
2017-08-28T21:07:02.970Z,16.01
2017-08-28T21:09:32.901Z,16.02
2017-08-28T21:12:03.046Z,15.77
2017-08-28T21:14:33.550Z,15.73
2017-08-28T21:17:03.555Z,15.67
2017-08-28T21:19:33.441Z,15.65
2017-08-28T21:22:03.329Z,15.70
2017-08-28T21:24:33.842Z,15.57
2017-08-28T21:27:03.776Z,15.57
2017-08-28T21:29:33.694Z,15.73
2017-08-28T21:32:03.357Z,15.43
2017-08-28T21:34:33.629Z,15.49
2017-08-28T21:37:03.290Z,15.25
2017-08-28T21:39:33.093Z,15.16
2017-08-28T21:42:02.716Z,15.17
2017-08-28T21:44:32.264Z,15.24
2017-08-28T21:47:02.018Z,15.38
2017-08-28T21:49:31.676Z,15.20
2017-08-28T21:52:01.608Z,15.24
2017-08-28T21:54:31.222Z,15.15
2017-08-28T21:57:00.821Z,15.14
2017-08-28T21:59:30.333Z,15.15
2017-08-28T22:01:59.882Z,15.11
2017-08-28T22:04:30.233Z,15.10
2017-08-28T22:06:59.898Z,15.00
2017-08-28T22:09:29.733Z,15.13
2017-08-28T22:11:59.546Z,15.25
2017-08-28T22:14:30.434Z,15.21
2017-08-28T22:17:00.464Z,15.01
2017-08-28T22:19:30.650Z,15.16
2017-08-28T22:22:00.640Z,15.05
2017-08-28T22:24:30.572Z,15.01
2017-08-28T22:27:00.303Z,14.99
2017-08-28T22:29:31.010Z,15.04
2017-08-28T22:32:01.062Z,15.05
2017-08-28T22:34:31.002Z,15.08
2017-08-28T22:37:00.784Z,15.04
2017-08-28T22:39:30.350Z,15.03
2017-08-28T22:41:59.913Z,14.97
2017-08-28T22:44:29.959Z,14.86
2017-08-28T22:46:59.784Z,14.86
2017-08-28T22:49:29.509Z,14.88
2017-08-28T22:51:59.037Z,14.81
2017-08-28T22:54:28.753Z,14.71
2017-08-28T22:56:58.676Z,14.75
2017-08-28T22:59:28.573Z,14.87
2017-08-28T23:01:58.259Z,14.70
2017-08-28T23:04:28.095Z,14.56
2017-08-28T23:06:57.854Z,14.69
2017-08-28T23:09:28.109Z,14.71
2017-08-28T23:11:58.138Z,14.74
2017-08-28T23:14:27.668Z,14.74
2017-08-28T23:16:57.224Z,14.60
2017-08-28T23:19:26.836Z,14.60
2017-08-28T23:21:56.542Z,14.55
2017-08-28T23:24:26.445Z,14.57
2017-08-28T23:26:56.567Z,14.45
2017-08-28T23:29:26.125Z,14.68
2017-08-28T23:31:55.676Z,14.74
2017-08-28T23:34:25.198Z,14.49
2017-08-28T23:36:54.995Z,14.47
2017-08-28T23:39:24.542Z,14.42
2017-08-28T23:41:54.412Z,14.41
2017-08-28T23:44:24.432Z,14.29
2017-08-28T23:46:54.188Z,14.44
2017-08-28T23:49:23.687Z,14.30
2017-08-28T23:51:53.253Z,14.41
2017-08-28T23:54:23.041Z,14.37
2017-08-28T23:56:52.685Z,14.43
2017-08-28T23:59:22.486Z,14.30
